sensor_id;sensor_type;location;lat;lon;timestamp;P1;durP1;ratioP1;P2;durP2;ratioP2
44720;SDS011;30450;52.534;13.398;2023-02-05T00:02:00;3.25;;;1.67;;
44720;SDS011;30450;52.534;13.398;2023-02-05T00:04:26;4.03;;;1.42;;
44720;SDS011;30450;52.534;13.398;2023-02-05T00:06:52;4.13;;;2.03;;
44720;SDS011;30450;52.534;13.398;2023-02-05T00:09:18;6.38;;;2.20;;
44720;SDS011;30450;52.534;13.398;2023-02-05T00:11:44;4.78;;;1.92;;
44720;SDS011;30450;52.534;13.398;2023-02-05T00:14:10;3.80;;;1.83;;
44720;SDS011;30450;52.534;13.398;2023-02-05T00:16:36;3.85;;;1.90;;
44720;SDS011;30450;52.534;13.398;2023-02-05T00:19:02;4.10;;;1.90;;
44720;SDS011;30450;52.534;13.398;2023-02-05T00:21:28;4.55;;;1.70;;
44720;SDS011;30450;52.534;13.398;2023-02-05T00:23:54;6.00;;;2.25;;
44720;SDS011;30450;52.534;13.398;2023-02-05T00:26:20;6.40;;;1.95;;
44720;SDS011;30450;52.534;13.398;2023-02-05T00:28:45;3.47;;;1.67;;
44720;SDS011;30450;52.534;13.398;2023-02-05T00:31:15;5.07;;;1.65;;
44720;SDS011;30450;52.534;13.398;2023-02-05T00:33:41;2.08;;;1.10;;
44720;SDS011;30450;52.534;13.398;2023-02-05T00:36:07;2.47;;;1.30;;
44720;SDS011;30450;52.534;13.398;2023-02-05T00:38:33;3.45;;;1.70;;
44720;SDS011;30450;52.534;13.398;2023-02-05T00:40:59;4.47;;;2.13;;
44720;SDS011;30450;52.534;13.398;2023-02-05T00:43:25;4.65;;;2.10;;
44720;SDS011;30450;52.534;13.398;2023-02-05T00:45:51;7.45;;;2.17;;
44720;SDS011;30450;52.534;13.398;2023-02-05T00:48:17;6.10;;;1.75;;
44720;SDS011;30450;52.534;13.398;2023-02-05T00:50:43;4.15;;;2.15;;
44720;SDS011;30450;52.534;13.398;2023-02-05T00:53:08;12.15;;;2.65;;
44720;SDS011;30450;52.534;13.398;2023-02-05T00:55:36;5.50;;;2.13;;
44720;SDS011;30450;52.534;13.398;2023-02-05T00:58:01;5.75;;;1.90;;
44720;SDS011;30450;52.534;13.398;2023-02-05T01:00:27;5.50;;;2.00;;
44720;SDS011;30450;52.534;13.398;2023-02-05T01:02:53;6.25;;;1.92;;
44720;SDS011;30450;52.534;13.398;2023-02-05T01:05:19;6.00;;;2.47;;
44720;SDS011;30450;52.534;13.398;2023-02-05T01:07:45;5.97;;;1.70;;
44720;SDS011;30450;52.534;13.398;2023-02-05T01:10:10;4.68;;;1.90;;
44720;SDS011;30450;52.534;13.398;2023-02-05T01:12:36;5.10;;;2.00;;
44720;SDS011;30450;52.534;13.398;2023-02-05T01:15:03;7.20;;;1.90;;
44720;SDS011;30450;52.534;13.398;2023-02-05T01:17:29;4.57;;;2.40;;
44720;SDS011;30450;52.534;13.398;2023-02-05T01:19:55;4.68;;;2.28;;
44720;SDS011;30450;52.534;13.398;2023-02-05T01:22:21;12.48;;;2.17;;
44720;SDS011;30450;52.534;13.398;2023-02-05T01:24:47;4.80;;;1.83;;
44720;SDS011;30450;52.534;13.398;2023-02-05T01:27:13;4.07;;;1.52;;
44720;SDS011;30450;52.534;13.398;2023-02-05T01:29:39;5.18;;;2.20;;
44720;SDS011;30450;52.534;13.398;2023-02-05T01:32:05;6.20;;;1.83;;
44720;SDS011;30450;52.534;13.398;2023-02-05T01:34:31;2.70;;;1.77;;
44720;SDS011;30450;52.534;13.398;2023-02-05T01:36:57;4.35;;;1.67;;
44720;SDS011;30450;52.534;13.398;2023-02-05T01:39:23;8.27;;;2.60;;
44720;SDS011;30450;52.534;13.398;2023-02-05T01:41:49;4.15;;;1.65;;
44720;SDS011;30450;52.534;13.398;2023-02-05T01:44:19;5.00;;;1.80;;
44720;SDS011;30450;52.534;13.398;2023-02-05T01:46:49;6.78;;;2.20;;
44720;SDS011;30450;52.534;13.398;2023-02-05T01:51:44;4.55;;;2.08;;
44720;SDS011;30450;52.534;13.398;2023-02-05T01:54:12;4.72;;;2.17;;
44720;SDS011;30450;52.534;13.398;2023-02-05T01:56:39;9.55;;;2.22;;
44720;SDS011;30450;52.534;13.398;2023-02-05T01:59:20;5.75;;;2.00;;
44720;SDS011;30450;52.534;13.398;2023-02-05T02:01:49;4.32;;;2.10;;
44720;SDS011;30450;52.534;13.398;2023-02-05T02:04:17;4.35;;;1.70;;
44720;SDS011;30450;52.534;13.398;2023-02-05T02:06:45;5.78;;;2.92;;
44720;SDS011;30450;52.534;13.398;2023-02-05T02:09:11;4.95;;;2.10;;
44720;SDS011;30450;52.534;13.398;2023-02-05T02:11:37;3.33;;;1.67;;
44720;SDS011;30450;52.534;13.398;2023-02-05T02:14:07;6.43;;;2.42;;
44720;SDS011;30450;52.534;13.398;2023-02-05T02:16:34;3.97;;;1.60;;
44720;SDS011;30450;52.534;13.398;2023-02-05T02:19:01;5.95;;;1.98;;
44720;SDS011;30450;52.534;13.398;2023-02-05T02:34:36;5.10;;;1.92;;
44720;SDS011;30450;52.534;13.398;2023-02-05T02:39:31;4.20;;;1.85;;
44720;SDS011;30450;52.534;13.398;2023-02-05T02:42:14;4.13;;;1.98;;
44720;SDS011;30450;52.534;13.398;2023-02-05T02:44:55;8.25;;;2.50;;
44720;SDS011;30450;52.534;13.398;2023-02-05T02:47:24;5.05;;;2.00;;
44720;SDS011;30450;52.534;13.398;2023-02-05T02:49:58;5.07;;;2.20;;
44720;SDS011;30450;52.534;13.398;2023-02-05T02:52:25;4.45;;;2.00;;
44720;SDS011;30450;52.534;13.398;2023-02-05T02:54:52;5.00;;;2.63;;
44720;SDS011;30450;52.534;13.398;2023-02-05T02:57:18;5.88;;;2.35;;
44720;SDS011;30450;52.534;13.398;2023-02-05T02:59:46;6.38;;;2.13;;
44720;SDS011;30450;52.534;13.398;2023-02-05T03:02:13;5.15;;;2.05;;
44720;SDS011;30450;52.534;13.398;2023-02-05T03:04:41;5.65;;;2.42;;
44720;SDS011;30450;52.534;13.398;2023-02-05T03:09:39;7.28;;;2.80;;
44720;SDS011;30450;52.534;13.398;2023-02-05T03:12:06;7.43;;;2.35;;
44720;SDS011;30450;52.534;13.398;2023-02-05T03:14:32;7.60;;;2.92;;
44720;SDS011;30450;52.534;13.398;2023-02-05T03:16:58;6.00;;;2.03;;
44720;SDS011;30450;52.534;13.398;2023-02-05T03:19:24;5.65;;;2.28;;
44720;SDS011;30450;52.534;13.398;2023-02-05T03:21:53;6.28;;;3.08;;
44720;SDS011;30450;52.534;13.398;2023-02-05T03:24:20;6.00;;;2.88;;
44720;SDS011;30450;52.534;13.398;2023-02-05T03:26:45;5.82;;;3.13;;
44720;SDS011;30450;52.534;13.398;2023-02-05T03:29:12;3.63;;;2.28;;
44720;SDS011;30450;52.534;13.398;2023-02-05T03:31:53;5.50;;;2.88;;
44720;SDS011;30450;52.534;13.398;2023-02-05T03:36:57;6.07;;;3.17;;
44720;SDS011;30450;52.534;13.398;2023-02-05T03:39:34;4.97;;;2.65;;
44720;SDS011;30450;52.534;13.398;2023-02-05T03:42:12;6.20;;;2.63;;
44720;SDS011;30450;52.534;13.398;2023-02-05T03:45:01;5.63;;;2.83;;
44720;SDS011;30450;52.534;13.398;2023-02-05T03:47:34;9.55;;;2.58;;
44720;SDS011;30450;52.534;13.398;2023-02-05T03:52:37;4.47;;;2.60;;
44720;SDS011;30450;52.534;13.398;2023-02-05T03:55:12;6.05;;;2.45;;
44720;SDS011;30450;52.534;13.398;2023-02-05T04:00:15;8.32;;;3.85;;
44720;SDS011;30450;52.534;13.398;2023-02-05T04:02:41;7.43;;;2.83;;
44720;SDS011;30450;52.534;13.398;2023-02-05T04:05:07;6.55;;;3.38;;
44720;SDS011;30450;52.534;13.398;2023-02-05T04:07:33;6.25;;;3.00;;
44720;SDS011;30450;52.534;13.398;2023-02-05T04:09:59;4.13;;;2.60;;
44720;SDS011;30450;52.534;13.398;2023-02-05T04:12:25;8.00;;;2.50;;
44720;SDS011;30450;52.534;13.398;2023-02-05T04:14:51;3.25;;;2.15;;
44720;SDS011;30450;52.534;13.398;2023-02-05T04:17:17;10.27;;;3.22;;
44720;SDS011;30450;52.534;13.398;2023-02-05T04:19:42;7.03;;;2.42;;
44720;SDS011;30450;52.534;13.398;2023-02-05T04:22:08;5.15;;;2.65;;
44720;SDS011;30450;52.534;13.398;2023-02-05T04:24:34;7.30;;;2.75;;
44720;SDS011;30450;52.534;13.398;2023-02-05T04:27:00;7.07;;;2.60;;
44720;SDS011;30450;52.534;13.398;2023-02-05T04:29:26;5.70;;;2.85;;
44720;SDS011;30450;52.534;13.398;2023-02-05T04:31:51;5.60;;;2.78;;
44720;SDS011;30450;52.534;13.398;2023-02-05T04:34:17;4.10;;;2.33;;
44720;SDS011;30450;52.534;13.398;2023-02-05T04:36:44;7.22;;;2.40;;
44720;SDS011;30450;52.534;13.398;2023-02-05T04:39:10;4.68;;;1.70;;
44720;SDS011;30450;52.534;13.398;2023-02-05T04:41:36;4.05;;;1.98;;
44720;SDS011;30450;52.534;13.398;2023-02-05T04:44:02;6.78;;;2.25;;
44720;SDS011;30450;52.534;13.398;2023-02-05T04:46:27;7.25;;;2.47;;
44720;SDS011;30450;52.534;13.398;2023-02-05T04:48:53;4.65;;;1.98;;
44720;SDS011;30450;52.534;13.398;2023-02-05T04:51:20;4.88;;;2.35;;
44720;SDS011;30450;52.534;13.398;2023-02-05T04:53:47;4.97;;;1.95;;
44720;SDS011;30450;52.534;13.398;2023-02-05T04:56:14;3.53;;;2.28;;
44720;SDS011;30450;52.534;13.398;2023-02-05T04:58:40;4.10;;;2.20;;
44720;SDS011;30450;52.534;13.398;2023-02-05T05:01:13;3.47;;;2.08;;
44720;SDS011;30450;52.534;13.398;2023-02-05T05:03:39;5.65;;;2.40;;
44720;SDS011;30450;52.534;13.398;2023-02-05T05:06:06;3.45;;;1.98;;
44720;SDS011;30450;52.534;13.398;2023-02-05T05:08:32;3.58;;;2.10;;
44720;SDS011;30450;52.534;13.398;2023-02-05T05:10:57;6.13;;;2.28;;
44720;SDS011;30450;52.534;13.398;2023-02-05T05:13:23;4.20;;;2.20;;
44720;SDS011;30450;52.534;13.398;2023-02-05T05:15:54;5.25;;;2.03;;
44720;SDS011;30450;52.534;13.398;2023-02-05T05:18:21;4.10;;;2.35;;
44720;SDS011;30450;52.534;13.398;2023-02-05T05:20:46;6.03;;;2.42;;
44720;SDS011;30450;52.534;13.398;2023-02-05T05:23:12;4.25;;;1.92;;
44720;SDS011;30450;52.534;13.398;2023-02-05T05:25:41;5.60;;;2.20;;
44720;SDS011;30450;52.534;13.398;2023-02-05T05:28:07;5.47;;;2.30;;
44720;SDS011;30450;52.534;13.398;2023-02-05T05:30:32;5.45;;;2.25;;
44720;SDS011;30450;52.534;13.398;2023-02-05T05:32:58;3.90;;;1.98;;
44720;SDS011;30450;52.534;13.398;2023-02-05T05:35:24;4.50;;;2.42;;
44720;SDS011;30450;52.534;13.398;2023-02-05T05:37:50;7.45;;;1.80;;
44720;SDS011;30450;52.534;13.398;2023-02-05T05:40:16;6.32;;;1.83;;
44720;SDS011;30450;52.534;13.398;2023-02-05T05:43:00;6.18;;;2.20;;
44720;SDS011;30450;52.534;13.398;2023-02-05T05:45:46;4.13;;;1.95;;
44720;SDS011;30450;52.534;13.398;2023-02-05T05:48:12;2.95;;;1.88;;
44720;SDS011;30450;52.534;13.398;2023-02-05T05:50:38;4.28;;;2.03;;
44720;SDS011;30450;52.534;13.398;2023-02-05T05:53:04;5.05;;;1.90;;
44720;SDS011;30450;52.534;13.398;2023-02-05T05:55:30;7.55;;;2.72;;
44720;SDS011;30450;52.534;13.398;2023-02-05T05:57:56;6.10;;;2.60;;
44720;SDS011;30450;52.534;13.398;2023-02-05T06:00:22;5.15;;;2.10;;
44720;SDS011;30450;52.534;13.398;2023-02-05T06:02:48;8.63;;;3.47;;
44720;SDS011;30450;52.534;13.398;2023-02-05T06:05:13;7.38;;;3.28;;
44720;SDS011;30450;52.534;13.398;2023-02-05T06:07:39;5.70;;;2.47;;
44720;SDS011;30450;52.534;13.398;2023-02-05T06:10:05;5.30;;;2.53;;
44720;SDS011;30450;52.534;13.398;2023-02-05T06:12:31;4.65;;;2.67;;
44720;SDS011;30450;52.534;13.398;2023-02-05T06:14:57;8.20;;;2.45;;
44720;SDS011;30450;52.534;13.398;2023-02-05T06:17:22;4.28;;;2.30;;
44720;SDS011;30450;52.534;13.398;2023-02-05T06:19:48;4.45;;;1.77;;
44720;SDS011;30450;52.534;13.398;2023-02-05T06:22:14;3.45;;;2.05;;
44720;SDS011;30450;52.534;13.398;2023-02-05T06:24:40;8.70;;;2.60;;
44720;SDS011;30450;52.534;13.398;2023-02-05T06:27:06;5.32;;;2.00;;
44720;SDS011;30450;52.534;13.398;2023-02-05T06:29:32;4.25;;;1.67;;
44720;SDS011;30450;52.534;13.398;2023-02-05T06:31:58;2.65;;;1.70;;
44720;SDS011;30450;52.534;13.398;2023-02-05T06:34:24;7.53;;;2.28;;
44720;SDS011;30450;52.534;13.398;2023-02-05T06:36:49;6.82;;;2.20;;
44720;SDS011;30450;52.534;13.398;2023-02-05T06:39:15;5.80;;;1.83;;
44720;SDS011;30450;52.534;13.398;2023-02-05T06:41:41;5.00;;;2.72;;
44720;SDS011;30450;52.534;13.398;2023-02-05T06:44:07;5.70;;;2.15;;
44720;SDS011;30450;52.534;13.398;2023-02-05T06:46:33;6.90;;;2.08;;
44720;SDS011;30450;52.534;13.398;2023-02-05T06:48:59;3.30;;;1.90;;
44720;SDS011;30450;52.534;13.398;2023-02-05T06:51:25;5.18;;;2.20;;
44720;SDS011;30450;52.534;13.398;2023-02-05T06:53:51;2.25;;;1.50;;
44720;SDS011;30450;52.534;13.398;2023-02-05T06:56:19;3.53;;;2.15;;
44720;SDS011;30450;52.534;13.398;2023-02-05T06:58:45;6.05;;;2.15;;
44720;SDS011;30450;52.534;13.398;2023-02-05T07:01:11;5.55;;;2.42;;
44720;SDS011;30450;52.534;13.398;2023-02-05T07:03:37;5.47;;;2.55;;
44720;SDS011;30450;52.534;13.398;2023-02-05T07:06:03;3.17;;;2.05;;
44720;SDS011;30450;52.534;13.398;2023-02-05T07:08:29;2.75;;;2.15;;
44720;SDS011;30450;52.534;13.398;2023-02-05T07:10:55;7.78;;;2.40;;
44720;SDS011;30450;52.534;13.398;2023-02-05T07:13:21;5.13;;;2.45;;
44720;SDS011;30450;52.534;13.398;2023-02-05T07:15:47;6.93;;;2.90;;
44720;SDS011;30450;52.534;13.398;2023-02-05T07:18:14;4.43;;;2.75;;
44720;SDS011;30450;52.534;13.398;2023-02-05T07:20:40;6.15;;;3.03;;
44720;SDS011;30450;52.534;13.398;2023-02-05T07:23:05;6.53;;;3.30;;
44720;SDS011;30450;52.534;13.398;2023-02-05T07:25:33;5.40;;;3.28;;
44720;SDS011;30450;52.534;13.398;2023-02-05T07:28:03;5.30;;;3.35;;
44720;SDS011;30450;52.534;13.398;2023-02-05T07:30:29;7.63;;;2.90;;
44720;SDS011;30450;52.534;13.398;2023-02-05T07:32:55;6.00;;;2.55;;
44720;SDS011;30450;52.534;13.398;2023-02-05T07:35:20;6.20;;;3.30;;
44720;SDS011;30450;52.534;13.398;2023-02-05T07:37:46;4.90;;;3.08;;
44720;SDS011;30450;52.534;13.398;2023-02-05T07:40:12;7.40;;;2.53;;
44720;SDS011;30450;52.534;13.398;2023-02-05T07:42:38;8.07;;;3.70;;
44720;SDS011;30450;52.534;13.398;2023-02-05T07:45:04;4.93;;;2.53;;
44720;SDS011;30450;52.534;13.398;2023-02-05T07:47:30;5.55;;;2.38;;
44720;SDS011;30450;52.534;13.398;2023-02-05T07:49:56;7.90;;;3.25;;
44720;SDS011;30450;52.534;13.398;2023-02-05T07:52:21;4.47;;;2.53;;
44720;SDS011;30450;52.534;13.398;2023-02-05T07:54:49;9.30;;;2.97;;
44720;SDS011;30450;52.534;13.398;2023-02-05T07:57:15;4.30;;;2.50;;
44720;SDS011;30450;52.534;13.398;2023-02-05T07:59:40;10.23;;;2.33;;
44720;SDS011;30450;52.534;13.398;2023-02-05T08:02:07;5.10;;;2.05;;
44720;SDS011;30450;52.534;13.398;2023-02-05T08:04:33;11.48;;;2.75;;
44720;SDS011;30450;52.534;13.398;2023-02-05T08:06:59;4.90;;;2.75;;
44720;SDS011;30450;52.534;13.398;2023-02-05T08:09:25;4.97;;;2.38;;
44720;SDS011;30450;52.534;13.398;2023-02-05T08:11:52;4.32;;;2.20;;
44720;SDS011;30450;52.534;13.398;2023-02-05T08:14:18;4.72;;;2.05;;
44720;SDS011;30450;52.534;13.398;2023-02-05T08:16:44;4.65;;;2.58;;
44720;SDS011;30450;52.534;13.398;2023-02-05T08:19:14;9.07;;;2.85;;
44720;SDS011;30450;52.534;13.398;2023-02-05T08:21:40;6.43;;;3.63;;
44720;SDS011;30450;52.534;13.398;2023-02-05T08:24:06;5.93;;;3.10;;
44720;SDS011;30450;52.534;13.398;2023-02-05T08:26:32;6.53;;;3.22;;
44720;SDS011;30450;52.534;13.398;2023-02-05T08:28:57;8.30;;;3.78;;
44720;SDS011;30450;52.534;13.398;2023-02-05T08:31:24;9.23;;;4.15;;
44720;SDS011;30450;52.534;13.398;2023-02-05T08:33:50;15.50;;;5.22;;
44720;SDS011;30450;52.534;13.398;2023-02-05T08:36:19;10.82;;;5.93;;
44720;SDS011;30450;52.534;13.398;2023-02-05T08:38:45;13.40;;;5.90;;
44720;SDS011;30450;52.534;13.398;2023-02-05T08:41:11;10.20;;;5.35;;
44720;SDS011;30450;52.534;13.398;2023-02-05T08:43:40;11.20;;;4.03;;
44720;SDS011;30450;52.534;13.398;2023-02-05T08:46:07;12.02;;;4.07;;
44720;SDS011;30450;52.534;13.398;2023-02-05T08:48:33;13.20;;;5.10;;
44720;SDS011;30450;52.534;13.398;2023-02-05T08:50:59;7.40;;;3.15;;
44720;SDS011;30450;52.534;13.398;2023-02-05T08:53:25;6.38;;;3.58;;
44720;SDS011;30450;52.534;13.398;2023-02-05T08:55:56;9.82;;;3.38;;
44720;SDS011;30450;52.534;13.398;2023-02-05T08:58:22;6.60;;;3.03;;
44720;SDS011;30450;52.534;13.398;2023-02-05T09:00:48;6.15;;;2.67;;
44720;SDS011;30450;52.534;13.398;2023-02-05T09:03:14;6.82;;;2.80;;
44720;SDS011;30450;52.534;13.398;2023-02-05T09:05:39;5.50;;;2.55;;
44720;SDS011;30450;52.534;13.398;2023-02-05T09:08:05;10.50;;;2.78;;
44720;SDS011;30450;52.534;13.398;2023-02-05T09:10:32;11.57;;;3.33;;
44720;SDS011;30450;52.534;13.398;2023-02-05T09:12:57;6.15;;;3.00;;
44720;SDS011;30450;52.534;13.398;2023-02-05T09:15:24;8.77;;;3.30;;
44720;SDS011;30450;52.534;13.398;2023-02-05T09:17:49;6.88;;;3.92;;
44720;SDS011;30450;52.534;13.398;2023-02-05T09:20:15;5.82;;;3.33;;
44720;SDS011;30450;52.534;13.398;2023-02-05T09:22:41;6.82;;;2.95;;
44720;SDS011;30450;52.534;13.398;2023-02-05T09:25:07;6.68;;;2.90;;
44720;SDS011;30450;52.534;13.398;2023-02-05T09:27:35;12.73;;;3.38;;
44720;SDS011;30450;52.534;13.398;2023-02-05T09:30:01;6.20;;;2.90;;
44720;SDS011;30450;52.534;13.398;2023-02-05T09:32:26;5.53;;;2.97;;
44720;SDS011;30450;52.534;13.398;2023-02-05T09:34:52;7.70;;;2.80;;
44720;SDS011;30450;52.534;13.398;2023-02-05T09:37:18;10.18;;;3.25;;
44720;SDS011;30450;52.534;13.398;2023-02-05T09:39:45;7.50;;;3.00;;
44720;SDS011;30450;52.534;13.398;2023-02-05T09:42:24;5.30;;;2.38;;
44720;SDS011;30450;52.534;13.398;2023-02-05T09:45:07;9.02;;;3.08;;
44720;SDS011;30450;52.534;13.398;2023-02-05T09:50:30;6.28;;;3.15;;
44720;SDS011;30450;52.534;13.398;2023-02-05T09:53:00;13.68;;;3.13;;
44720;SDS011;30450;52.534;13.398;2023-02-05T09:55:28;7.78;;;2.60;;
44720;SDS011;30450;52.534;13.398;2023-02-05T09:57:54;5.50;;;2.97;;
44720;SDS011;30450;52.534;13.398;2023-02-05T10:00:24;6.68;;;2.95;;
44720;SDS011;30450;52.534;13.398;2023-02-05T10:02:54;7.85;;;3.28;;
44720;SDS011;30450;52.534;13.398;2023-02-05T10:05:23;9.70;;;4.00;;
44720;SDS011;30450;52.534;13.398;2023-02-05T10:10:26;7.05;;;2.58;;
44720;SDS011;30450;52.534;13.398;2023-02-05T10:13:06;5.05;;;2.55;;
44720;SDS011;30450;52.534;13.398;2023-02-05T10:25:58;5.10;;;2.72;;
44720;SDS011;30450;52.534;13.398;2023-02-05T10:30:57;10.68;;;2.67;;
44720;SDS011;30450;52.534;13.398;2023-02-05T10:33:44;6.57;;;3.15;;
44720;SDS011;30450;52.534;13.398;2023-02-05T10:36:11;7.35;;;3.05;;
44720;SDS011;30450;52.534;13.398;2023-02-05T10:38:42;4.63;;;2.65;;
44720;SDS011;30450;52.534;13.398;2023-02-05T10:43:57;4.97;;;3.10;;
44720;SDS011;30450;52.534;13.398;2023-02-05T10:46:28;8.15;;;3.15;;
44720;SDS011;30450;52.534;13.398;2023-02-05T10:51:31;5.80;;;3.25;;
44720;SDS011;30450;52.534;13.398;2023-02-05T10:54:00;5.38;;;2.47;;
44720;SDS011;30450;52.534;13.398;2023-02-05T10:56:25;8.10;;;2.92;;
44720;SDS011;30450;52.534;13.398;2023-02-05T10:58:52;6.20;;;2.47;;
44720;SDS011;30450;52.534;13.398;2023-02-05T11:01:29;5.85;;;2.10;;
44720;SDS011;30450;52.534;13.398;2023-02-05T11:04:05;7.43;;;3.20;;
44720;SDS011;30450;52.534;13.398;2023-02-05T11:06:39;7.30;;;3.25;;
44720;SDS011;30450;52.534;13.398;2023-02-05T11:09:27;6.78;;;2.15;;
44720;SDS011;30450;52.534;13.398;2023-02-05T11:11:57;5.57;;;2.42;;
44720;SDS011;30450;52.534;13.398;2023-02-05T11:14:28;5.55;;;2.53;;
44720;SDS011;30450;52.534;13.398;2023-02-05T11:16:56;5.38;;;1.85;;
44720;SDS011;30450;52.534;13.398;2023-02-05T11:19:23;4.10;;;2.13;;
44720;SDS011;30450;52.534;13.398;2023-02-05T11:22:00;8.90;;;3.15;;
44720;SDS011;30450;52.534;13.398;2023-02-05T11:24:33;5.97;;;2.58;;
44720;SDS011;30450;52.534;13.398;2023-02-05T11:29:36;4.75;;;2.13;;
44720;SDS011;30450;52.534;13.398;2023-02-05T11:32:02;6.38;;;2.00;;
44720;SDS011;30450;52.534;13.398;2023-02-05T11:34:27;5.82;;;2.15;;
44720;SDS011;30450;52.534;13.398;2023-02-05T11:36:54;3.65;;;2.40;;
44720;SDS011;30450;52.534;13.398;2023-02-05T11:41:47;6.10;;;2.22;;
44720;SDS011;30450;52.534;13.398;2023-02-05T11:46:42;5.45;;;2.35;;
44720;SDS011;30450;52.534;13.398;2023-02-05T11:49:13;4.93;;;2.47;;
44720;SDS011;30450;52.534;13.398;2023-02-05T11:51:43;7.22;;;2.53;;
44720;SDS011;30450;52.534;13.398;2023-02-05T11:54:13;4.60;;;1.90;;
44720;SDS011;30450;52.534;13.398;2023-02-05T11:56:40;5.07;;;1.95;;
44720;SDS011;30450;52.534;13.398;2023-02-05T11:59:17;6.40;;;2.22;;
44720;SDS011;30450;52.534;13.398;2023-02-05T12:01:43;5.97;;;2.17;;
44720;SDS011;30450;52.534;13.398;2023-02-05T12:06:56;5.13;;;2.28;;
44720;SDS011;30450;52.534;13.398;2023-02-05T12:09:24;9.20;;;2.40;;
44720;SDS011;30450;52.534;13.398;2023-02-05T12:11:54;4.22;;;2.33;;
44720;SDS011;30450;52.534;13.398;2023-02-05T12:25:15;5.97;;;2.40;;
44720;SDS011;30450;52.534;13.398;2023-02-05T12:28:09;4.82;;;2.03;;
44720;SDS011;30450;52.534;13.398;2023-02-05T12:35:45;5.60;;;1.92;;
44720;SDS011;30450;52.534;13.398;2023-02-05T12:38:20;9.27;;;2.38;;
44720;SDS011;30450;52.534;13.398;2023-02-05T12:41:04;4.88;;;2.33;;
44720;SDS011;30450;52.534;13.398;2023-02-05T12:43:36;4.25;;;1.92;;
44720;SDS011;30450;52.534;13.398;2023-02-05T12:46:09;3.63;;;2.10;;
44720;SDS011;30450;52.534;13.398;2023-02-05T12:56:34;5.65;;;2.47;;
44720;SDS011;30450;52.534;13.398;2023-02-05T12:59:14;12.10;;;2.25;;
44720;SDS011;30450;52.534;13.398;2023-02-05T13:01:44;5.15;;;2.08;;
44720;SDS011;30450;52.534;13.398;2023-02-05T13:06:57;3.97;;;2.30;;
44720;SDS011;30450;52.534;13.398;2023-02-05T13:09:28;4.78;;;1.83;;
44720;SDS011;30450;52.534;13.398;2023-02-05T13:11:56;9.25;;;2.47;;
44720;SDS011;30450;52.534;13.398;2023-02-05T13:14:33;6.60;;;2.45;;
44720;SDS011;30450;52.534;13.398;2023-02-05T13:17:03;5.65;;;2.30;;
44720;SDS011;30450;52.534;13.398;2023-02-05T13:19:47;5.43;;;2.53;;
44720;SDS011;30450;52.534;13.398;2023-02-05T13:22:19;6.07;;;2.33;;
44720;SDS011;30450;52.534;13.398;2023-02-05T13:25:12;6.40;;;2.67;;
44720;SDS011;30450;52.534;13.398;2023-02-05T13:27:59;4.00;;;1.90;;
44720;SDS011;30450;52.534;13.398;2023-02-05T13:30:46;5.18;;;2.33;;
44720;SDS011;30450;52.534;13.398;2023-02-05T13:33:14;3.88;;;2.17;;
44720;SDS011;30450;52.534;13.398;2023-02-05T13:38:33;3.10;;;2.00;;
44720;SDS011;30450;52.534;13.398;2023-02-05T13:49:01;5.38;;;2.17;;
44720;SDS011;30450;52.534;13.398;2023-02-05T13:56:53;4.35;;;1.95;;
44720;SDS011;30450;52.534;13.398;2023-02-05T13:59:35;4.22;;;2.25;;
44720;SDS011;30450;52.534;13.398;2023-02-05T14:02:02;2.53;;;1.65;;
44720;SDS011;30450;52.534;13.398;2023-02-05T14:07:05;3.60;;;2.08;;
44720;SDS011;30450;52.534;13.398;2023-02-05T14:09:33;7.22;;;2.50;;
44720;SDS011;30450;52.534;13.398;2023-02-05T14:12:00;4.53;;;2.20;;
44720;SDS011;30450;52.534;13.398;2023-02-05T14:16:52;4.82;;;1.58;;
44720;SDS011;30450;52.534;13.398;2023-02-05T14:19:23;3.97;;;2.03;;
44720;SDS011;30450;52.534;13.398;2023-02-05T14:21:55;3.38;;;1.70;;
44720;SDS011;30450;52.534;13.398;2023-02-05T14:24:42;8.40;;;2.40;;
44720;SDS011;30450;52.534;13.398;2023-02-05T14:27:19;4.57;;;2.15;;
44720;SDS011;30450;52.534;13.398;2023-02-05T14:29:48;3.85;;;1.90;;
44720;SDS011;30450;52.534;13.398;2023-02-05T14:34:48;5.55;;;2.20;;
44720;SDS011;30450;52.534;13.398;2023-02-05T14:37:29;5.68;;;2.45;;
44720;SDS011;30450;52.534;13.398;2023-02-05T14:39:56;7.65;;;1.75;;
44720;SDS011;30450;52.534;13.398;2023-02-05T14:42:22;3.40;;;1.38;;
44720;SDS011;30450;52.534;13.398;2023-02-05T14:44:55;2.78;;;1.55;;
44720;SDS011;30450;52.534;13.398;2023-02-05T14:47:26;4.95;;;2.08;;
44720;SDS011;30450;52.534;13.398;2023-02-05T14:50:04;4.93;;;1.83;;
44720;SDS011;30450;52.534;13.398;2023-02-05T14:52:35;2.47;;;1.45;;
44720;SDS011;30450;52.534;13.398;2023-02-05T14:55:07;8.13;;;1.85;;
44720;SDS011;30450;52.534;13.398;2023-02-05T14:57:53;2.35;;;1.50;;
44720;SDS011;30450;52.534;13.398;2023-02-05T15:00:26;2.75;;;1.45;;
44720;SDS011;30450;52.534;13.398;2023-02-05T15:08:17;2.47;;;1.10;;
44720;SDS011;30450;52.534;13.398;2023-02-05T15:10:47;3.55;;;1.13;;
44720;SDS011;30450;52.534;13.398;2023-02-05T15:13:15;1.75;;;1.33;;
44720;SDS011;30450;52.534;13.398;2023-02-05T15:15:41;4.53;;;1.77;;
44720;SDS011;30450;52.534;13.398;2023-02-05T15:18:30;5.35;;;1.60;;
44720;SDS011;30450;52.534;13.398;2023-02-05T15:20:57;3.10;;;1.45;;
44720;SDS011;30450;52.534;13.398;2023-02-05T15:25:55;4.22;;;1.60;;
44720;SDS011;30450;52.534;13.398;2023-02-05T15:28:33;6.20;;;1.48;;
44720;SDS011;30450;52.534;13.398;2023-02-05T15:36:20;2.72;;;1.27;;
44720;SDS011;30450;52.534;13.398;2023-02-05T15:41:32;5.07;;;1.75;;
44720;SDS011;30450;52.534;13.398;2023-02-05T15:44:00;3.90;;;1.60;;
44720;SDS011;30450;52.534;13.398;2023-02-05T15:46:26;3.70;;;2.05;;
44720;SDS011;30450;52.534;13.398;2023-02-05T15:48:53;4.60;;;1.80;;
44720;SDS011;30450;52.534;13.398;2023-02-05T15:51:27;5.47;;;1.60;;
44720;SDS011;30450;52.534;13.398;2023-02-05T15:53:55;5.15;;;1.08;;
44720;SDS011;30450;52.534;13.398;2023-02-05T15:56:23;3.00;;;1.43;;
44720;SDS011;30450;52.534;13.398;2023-02-05T15:58:50;4.53;;;1.70;;
44720;SDS011;30450;52.534;13.398;2023-02-05T16:01:22;2.63;;;1.45;;
44720;SDS011;30450;52.534;13.398;2023-02-05T16:03:48;5.82;;;2.13;;
44720;SDS011;30450;52.534;13.398;2023-02-05T16:06:18;3.70;;;1.77;;
44720;SDS011;30450;52.534;13.398;2023-02-05T16:08:44;4.75;;;2.58;;
44720;SDS011;30450;52.534;13.398;2023-02-05T16:11:10;3.72;;;1.48;;
44720;SDS011;30450;52.534;13.398;2023-02-05T16:13:37;3.40;;;1.70;;
44720;SDS011;30450;52.534;13.398;2023-02-05T16:16:11;3.03;;;1.90;;
44720;SDS011;30450;52.534;13.398;2023-02-05T16:18:46;5.00;;;2.00;;
44720;SDS011;30450;52.534;13.398;2023-02-05T16:21:21;3.17;;;1.88;;
44720;SDS011;30450;52.534;13.398;2023-02-05T16:23:48;6.47;;;2.17;;
44720;SDS011;30450;52.534;13.398;2023-02-05T16:26:21;3.90;;;2.20;;
44720;SDS011;30450;52.534;13.398;2023-02-05T16:28:49;4.65;;;2.22;;
44720;SDS011;30450;52.534;13.398;2023-02-05T16:31:17;6.05;;;2.35;;
44720;SDS011;30450;52.534;13.398;2023-02-05T16:33:57;7.45;;;2.30;;
44720;SDS011;30450;52.534;13.398;2023-02-05T16:36:28;4.25;;;2.38;;
44720;SDS011;30450;52.534;13.398;2023-02-05T16:38:56;8.98;;;2.50;;
44720;SDS011;30450;52.534;13.398;2023-02-05T16:41:26;5.88;;;2.72;;
44720;SDS011;30450;52.534;13.398;2023-02-05T16:43:54;8.23;;;2.63;;
44720;SDS011;30450;52.534;13.398;2023-02-05T16:46:21;11.68;;;4.93;;
44720;SDS011;30450;52.534;13.398;2023-02-05T16:48:55;8.57;;;2.42;;
44720;SDS011;30450;52.534;13.398;2023-02-05T16:51:35;11.30;;;3.88;;